EW1710 Weather Reports


Display with metric or nautical units.
time (UTC)temp
F
wind
direction
speed
MPH
gust
MPH
rain 1hr
in
rain 24hr
in
rain mn
in
humidity
%
barometer
mb
20240620163659 88 281 2.0 2.0 0.00 0.00 0.00 58 1030.3
20240620163155 88 340 4.0 6.0 0.00 0.00 0.00 56 1030.3
20240620162653 88 311 2.0 2.0 0.00 0.00 0.00 56 1030.4
20240620162151 87 346 3.0 5.0 0.00 0.00 0.00 56 1030.3
20240620161650 88 320 5.0 7.0 0.00 0.00 0.00 54 1030.3
20240620161149 88 333 2.0 2.0 0.00 0.00 0.00 52 1030.3
20240620160647 87 349 2.0 3.0 0.00 0.00 0.00 59 1030.4
20240620160145 87 264 2.0 2.0 0.00 0.00 0.00 57 1030.2
20240620155644 87 16 1.0 1.0 0.00 0.00 0.00 58 1030.2
20240620155142 87 268 1.0 1.0 0.00 0.00 0.00 57 1030.3
20240620154641 87 313 3.0 5.0 0.00 0.00 0.00 57 1030.4
20240620154139 87 193 3.0 3.0 0.00 0.00 0.00 56 1030.1
20240620153638 87 95 1.0 2.0 0.00 0.00 0.00 58 1030.0
20240620153136 86 138 1.0 1.0 0.00 0.00 0.00 62 1030.1
20240620152635 86 128 2.0 3.0 0.00 0.00 0.00 62 1030.0
20240620152134 86 68 2.0 2.0 0.00 0.00 0.00 62 1030.2
20240620151630 86 305 3.0 3.0 0.00 0.00 0.00 62 1030.2
20240620151118 86 338 3.0 3.0 0.00 0.00 0.00 66 1030.2
20240620150617 86 352 1.0 1.0 0.00 0.00 0.00 63 1030.0
20240620150115 86 111 1.0 1.0 0.00 0.00 0.00 67 1030.1
20240620145615 86 303 1.0 2.0 0.00 0.00 0.00 61 1030.2
20240620145113 86 271 2.0 2.0 0.00 0.00 0.00 65 1029.8
20240620144610 85 153 3.0 3.0 0.00 0.00 0.00 68 1030.1
20240620144108 85 171 1.0 1.0 0.00 0.00 0.00 70 1030.0
20240620143606 85 333 2.0 3.0 0.00 0.00 0.00 69 1030.2
20240620143106 86 99 1.0 2.0 0.00 0.00 0.00 69 1030.2
20240620142604 85 165 2.0 2.0 0.00 0.00 0.00 71 1030.0
20240620142102 85 141 2.0 2.0 0.00 0.00 0.00 71 1030.3
20240620141559 84 331 2.0 3.0 0.00 0.00 0.00 71 1030.2
20240620141058 84 352 3.0 3.0 0.00 0.00 0.00 74 1030.2
20240620140558 84 70 3.0 3.0 0.00 0.00 0.00 73 1030.3
20240620140057 84 127 0.0 1.0 0.00 0.00 0.00 74 1030.1
20240620135556 84 304 3.0 5.0 0.00 0.00 0.00 74 1030.1
20240620135055 84 275 1.0 1.0 0.00 0.00 0.00 77 1030.3
20240620134555 83 154 3.0 5.0 0.00 0.00 0.00 75 1030.2
20240620134054 83 337 3.0 5.0 0.00 0.00 0.00 77 1030.3
20240620133553 83 327 0.0 0.0 0.00 0.00 0.00 80 1030.1
20240620133051 82 10 1.0 2.0 0.00 0.00 0.00 79 1030.4
20240620132550 82 11 3.0 3.0 0.00 0.00 0.00 80 1030.3
20240620132048 82 85 0.0 1.0 0.00 0.00 0.00 80 1030.1
20240620131546 82 350 2.0 2.0 0.00 0.00 0.00 80 1030.3
20240620131046 81 337 1.0 2.0 0.00 0.00 0.00 81 1030.5
20240620130545 81 300 2.0 2.0 0.00 0.00 0.00 81 1030.2
20240620130043 81 268 3.0 5.0 0.00 0.00 0.00 81 1030.4
20240620125542 81 351 2.0 2.0 0.00 0.00 0.00 81 1030.2
20240620125040 81 266 1.0 1.0 0.00 0.00 0.00 82 1030.2
20240620124539 80 20 2.0 2.0 0.00 0.00 0.00 84 1030.2
20240620124038 80 54 0.0 1.0 0.00 0.00 0.00 84 1030.6
20240620123538 80 280 0.0 1.0 0.00 0.00 0.00 85 1030.5
20240620123037 79 308 0.0 0.0 0.00 0.00 0.00 88 1030.2
20240620122536 78 317 1.0 1.0 0.00 0.00 0.00 89 1030.4
20240620122034 78 280 1.0 1.0 0.00 0.00 0.00 88 1030.3
20240620121532 77 285 0.0 1.0 0.00 0.00 0.00 90 1030.3
20240620121032 77 291 1.0 1.0 0.00 0.00 0.00 91 1030.1
20240620120530 76 307 0.0 1.0 0.00 0.00 0.00 92 1030.2
20240620120028 76 316 1.0 1.0 0.00 0.00 0.00 93 1030.3
20240620115528 75 323 1.0 1.0 0.00 0.00 0.00 95 1030.2
20240620115028 74 348 3.0 3.0 0.00 0.00 0.00 97 1030.3
20240620114528 73 339 1.0 1.0 0.00 0.00 0.00 99 1030.5
20240620114027 73 328 2.0 2.0 0.00 0.00 0.00 99 1030.4
20240620113526 73 4 3.0 3.0 0.00 0.00 0.00 99 1030.7
20240620113025 72 345 2.0 2.0 0.00 0.00 0.00 99 1030.3
20240620112524 72 334 1.0 1.0 0.00 0.00 0.00 99 1030.4
20240620112023 72 314 1.0 1.0 0.00 0.00 0.00 99 1030.3
20240620111522 72 359 1.0 2.0 0.00 0.00 0.00 99 1030.3
20240620111021 72 338 1.0 2.0 0.00 0.00 0.00 99 1030.2
20240620110519 71 346 1.0 2.0 0.00 0.00 0.00 99 1030.4
20240620110017 71 334 0.0 0.0 0.00 0.00 0.00 99 1030.1
20240620105516 71 335 0.0 1.0 0.00 0.00 0.00 99 1030.0
20240620105014 70 329 0.0 0.0 0.00 0.00 0.00 99 1030.0
20240620104514 70 329 0.0 0.0 0.00 0.00 0.00 99 1030.1
20240620104013 70 329 0.0 0.0 0.00 0.00 0.00 99 1030.0
20240620103513 71 328 0.0 0.0 0.00 0.00 0.00 99 1029.8
20240620103011 71 349 0.0 0.0 0.00 0.00 0.00 99 1030.1
20240620102509 70 352 0.0 0.0 0.00 0.00 0.00 99 1030.0
20240620102007 69 352 0.0 0.0 0.00 0.00 0.00 99 1029.7
20240620101508 69 350 0.0 0.0 0.00 0.00 0.00 99 1029.7
20240620101007 69 350 0.0 0.0 0.00 0.00 0.00 99 1030.0
20240620100505 69 347 0.0 0.0 0.00 0.00 0.00 99 1029.9
20240620100004 68 347 0.0 0.0 0.00 0.00 0.00 99 1029.9
20240620095502 69 347 0.0 0.0 0.00 0.00 0.00 99 1030.1
20240620095001 69 347 0.0 0.0 0.00 0.00 0.00 99 1029.9
20240620094459 68 347 0.0 0.0 0.00 0.00 0.00 99 1029.9
20240620093957 68 347 0.0 0.0 0.00 0.00 0.00 99 1030.2
20240620093456 68 352 0.0 0.0 0.00 0.00 0.00 99 1029.9
20240620092955 68 351 0.0 0.0 0.00 0.00 0.00 99 1029.9
20240620092454 68 20 0.0 0.0 0.00 0.00 0.00 99 1029.8
20240620091953 68 20 0.0 0.0 0.00 0.00 0.00 99 1030.0
20240620091452 68 20 0.0 0.0 0.00 0.00 0.00 99 1029.8
20240620090950 68 20 0.0 0.0 0.00 0.00 0.00 99 1029.9
20240620090449 68 20 0.0 0.0 0.00 0.00 0.00 99 1029.7
20240620085947 68 20 0.0 0.0 0.00 0.00 0.00 99 1029.9
20240620085445 69 20 0.0 0.0 0.00 0.00 0.00 99 1029.8
20240620084943 69 20 0.0 0.0 0.00 0.00 0.00 99 1029.7
20240620084442 69 21 0.0 0.0 0.00 0.00 0.00 99 1029.8
20240620083941 68 20 0.0 0.0 0.00 0.00 0.00 99 1029.7
20240620083439 69 20 0.0 0.0 0.00 0.00 0.00 99 1029.8
20240620082939 69 20 0.0 0.0 0.00 0.00 0.00 99 1029.7
20240620082438 69 20 0.0 0.0 0.00 0.00 0.00 99 1029.8
20240620081937 69 20 0.0 0.0 0.00 0.00 0.00 99 1029.8
20240620081435 69 20 0.0 0.0 0.00 0.00 0.00 99 1029.9
20240620080934 69 20 0.0 0.0 0.00 0.00 0.00 99 1029.8
20240620080433 69 20 0.0 0.0 0.00 0.00 0.00 99 1029.7
20240620075932 69 20 0.0 0.0 0.00 0.00 0.00 99 1029.8
20240620075431 69 20 0.0 0.0 0.00 0.00 0.00 99 1029.7
20240620074929 69 20 0.0 0.0 0.00 0.00 0.00 99 1029.8
20240620074427 69 20 0.0 0.0 0.00 0.00 0.00 99 1029.5
20240620073927 69 20 0.0 0.0 0.00 0.00 0.00 99 1029.4
20240620073426 69 20 0.0 0.0 0.00 0.00 0.00 99 1029.5
20240620072925 69 20 0.0 0.0 0.00 0.00 0.00 99 1029.4
20240620072422 69 20 0.0 0.0 0.00 0.00 0.00 99 1029.3
20240620071922 69 20 0.0 0.0 0.00 0.00 0.00 99 1029.3
20240620071420 69 20 0.0 0.0 0.00 0.00 0.00 99 1029.4
20240620070918 69 20 0.0 0.0 0.00 0.00 0.00 99 1029.3
20240620070418 69 20 0.0 0.0 0.00 0.00 0.00 99 1029.3
20240620065917 69 20 0.0 0.0 0.00 0.00 0.00 99 1029.4
20240620065417 69 20 0.0 0.0 0.00 0.00 0.00 99 1029.7
20240620064916 69 20 0.0 0.0 0.00 0.00 0.00 99 1029.4
20240620064415 68 20 0.0 0.0 0.00 0.00 0.00 99 1029.7
20240620063913 69 20 0.0 0.0 0.00 0.00 0.00 99 1029.5
20240620063413 69 20 0.0 0.0 0.00 0.00 0.00 99 1029.5
20240620062912 69 20 0.0 0.0 0.00 0.00 0.00 99 1029.5
20240620062411 69 20 0.0 0.0 0.00 0.00 0.00 99 1029.4
20240620061910 69 20 0.0 0.0 0.00 0.00 0.00 99 1029.7
20240620061408 69 20 0.0 0.0 0.00 0.00 0.00 99 1029.8
20240620060909 69 20 0.0 0.0 0.00 0.00 0.00 99 1029.8
20240620060408 69 20 0.0 0.0 0.00 0.00 0.00 99 1029.5
20240620055907 70 20 0.0 0.0 0.00 0.00 0.00 99 1029.7
20240620055407 70 20 0.0 0.0 0.00 0.00 0.00 99 1029.7
20240620054906 69 20 0.0 0.0 0.00 0.00 0.00 99 1029.5
20240620054405 70 20 0.0 0.0 0.00 0.00 0.00 99 1029.8
20240620053903 70 20 0.0 0.0 0.00 0.00 0.00 99 1029.8
20240620053403 70 20 0.0 0.0 0.00 0.00 0.00 99 1029.5
20240620052902 70 20 0.0 0.0 0.00 0.00 0.00 99 1029.4
20240620052401 70 21 0.0 0.0 0.00 0.00 0.00 99 1029.7
20240620051859 71 21 0.0 0.0 0.00 0.00 0.00 99 1029.7
20240620051359 71 345 0.0 0.0 0.00 0.00 0.00 99 1029.1
20240620050857 71 345 0.0 0.0 0.00 0.00 0.00 99 1029.2
20240620050357 71 346 0.0 0.0 0.00 0.00 0.00 99 1029.2
20240620045856 71 345 0.0 0.0 0.00 0.00 0.00 99 1029.4
20240620045354 71 345 0.0 0.0 0.00 0.00 0.00 99 1029.4
20240620044852 71 345 0.0 0.0 0.00 0.00 0.00 99 1029.4
20240620044350 71 347 0.0 0.0 0.00 0.00 0.00 98 1029.5
20240620043850 71 347 0.0 0.0 0.00 0.00 0.00 98 1029.1
20240620043349 71 345 0.0 0.0 0.00 0.00 0.00 98 1029.0
20240620042848 71 345 0.0 0.0 0.00 0.00 0.00 98 1029.4
20240620042347 72 345 0.0 0.0 0.00 0.00 0.00 97 1029.3
20240620041847 72 345 0.0 0.0 0.00 0.00 0.00 97 1028.8
20240620041344 72 345 0.0 0.0 0.00 0.00 0.00 97 1029.0
20240620040843 72 345 0.0 0.0 0.00 0.00 0.00 97 1029.2
20240620040339 73 345 0.0 0.0 0.00 0.00 0.00 96 1029.1
20240620035837 73 345 0.0 0.0 0.00 0.00 0.00 96 1029.0
20240620035336 73 346 0.0 0.0 0.00 0.00 0.00 96 1029.0
20240620034836 73 334 0.0 0.0 0.00 0.00 0.00 96 1029.0
20240620034334 73 349 1.0 1.0 0.00 0.00 0.00 96 1028.9
20240620033834 73 332 0.0 1.0 0.00 0.00 0.00 96 1028.8
20240620033332 73 341 1.0 1.0 0.00 0.00 0.00 96 1029.1
20240620032831 73 352 0.0 0.0 0.00 0.00 0.00 97 1029.0
20240620032330 73 349 0.0 0.0 0.00 0.00 0.00 96 1029.2
20240620031829 73 353 0.0 0.0 0.00 0.00 0.00 96 1029.0
20240620031327 73 337 0.0 0.0 0.00 0.00 0.00 96 1029.1
20240620030826 73 359 0.0 0.0 0.00 0.00 0.00 95 1029.2
20240620030322 73 359 0.0 0.0 0.00 0.00 0.00 95 1029.2
20240620025820 74 359 0.0 0.0 0.00 0.00 0.00 94 1029.4
20240620025319 74 0 0.0 0.0 0.00 0.00 0.00 94 1029.5
20240620024818 74 0 0.0 0.0 0.00 0.00 0.00 94 1029.3
20240620024316 74 0 0.0 0.0 0.00 0.00 0.00 94 1029.0
20240620023815 74 338 0.0 0.0 0.00 0.00 0.00 94 1029.2
20240620023314 74 338 0.0 0.0 0.00 0.00 0.00 94 1029.4
20240620022813 74 338 0.0 0.0 0.00 0.00 0.00 94 1029.4
20240620022312 75 338 0.0 0.0 0.00 0.00 0.00 93 1029.1
20240620021812 75 338 0.0 0.0 0.00 0.00 0.00 93 1029.2
20240620021312 75 334 0.0 0.0 0.00 0.00 0.00 93 1029.2
20240620020811 75 334 0.0 0.0 0.00 0.00 0.00 92 1029.0
20240620020310 75 333 0.0 0.0 0.00 0.00 0.00 91 1029.1
20240620015810 76 333 0.0 0.0 0.00 0.00 0.00 90 1029.1
20240620015309 76 333 0.0 0.0 0.00 0.00 0.00 90 1029.0
20240620014808 76 333 0.0 0.0 0.00 0.00 0.00 90 1028.9
20240620014306 76 333 0.0 0.0 0.00 0.00 0.00 89 1029.0
20240620013804 77 333 0.0 0.0 0.00 0.00 0.00 88 1029.1
20240620013303 77 333 0.0 0.0 0.00 0.00 0.00 87 1028.8
20240620012801 78 333 0.0 0.0 0.00 0.00 0.00 86 1028.7
20240620012300 78 333 0.0 0.0 0.00 0.00 0.00 85 1028.6
20240620011759 78 333 0.0 0.0 0.00 0.00 0.00 84 1028.7
20240620011255 79 333 0.0 0.0 0.00 0.00 0.00 83 1028.8
20240620010627 79 333 0.0 0.0 0.00 0.00 0.00 82 1028.7
20240620010126 80 333 0.0 0.0 0.00 0.00 0.00 81 1028.6
20240620005625 80 333 0.0 0.0 0.00 0.00 0.00 80 1028.4
20240620005125 81 333 0.0 1.0 0.00 0.00 0.00 78 1028.6
20240620004624 82 333 0.0 0.0 0.00 0.00 0.00 76 1028.4
20240620004122 82 331 0.0 0.0 0.00 0.00 0.00 76 1028.3
20240620003621 82 342 1.0 1.0 0.00 0.00 0.00 76 1028.2
20240620003118 82 327 0.0 0.0 0.00 0.00 0.00 76 1028.2
20240620002616 83 355 0.0 0.0 0.00 0.00 0.00 75 1028.0
20240620002116 83 337 1.0 2.0 0.00 0.00 0.00 75 1027.9
20240620001616 84 278 1.0 1.0 0.00 0.00 0.00 74 1027.8
20240620001114 84 339 1.0 1.0 0.00 0.00 0.00 74 1027.8
20240620000613 85 333 1.0 1.0 0.00 0.00 0.00 73 1028.0
20240620000112 86 343 0.0 0.0 0.00 0.00 0.00 71 1027.7
20240619235611 86 332 1.0 1.0 0.00 0.00 0.00 70 1027.7
20240619235109 86 310 0.0 1.0 0.00 0.00 0.00 70 1027.7
20240619234607 86 328 3.0 5.0 0.00 0.00 0.00 68 1027.5
20240619234105 86 254 1.0 2.0 0.00 0.00 0.00 71 1027.8
20240619233604 86 9 3.0 3.0 0.00 0.00 0.00 70 1027.9
20240619233103 86 340 1.0 1.0 0.00 0.00 0.00 71 1027.6
20240619232601 87 339 4.0 5.0 0.00 0.00 0.00 68 1027.8
20240619232101 87 338 3.0 3.0 0.00 0.00 0.00 69 1027.9
20240619231559 87 357 2.0 2.0 0.00 0.00 0.00 67 1027.6
20240619231058 87 335 3.0 5.0 0.00 0.00 0.00 66 1027.9
20240619230557 87 326 2.0 2.0 0.00 0.00 0.00 67 1027.8
20240619230056 87 334 1.0 2.0 0.00 0.00 0.00 67 1027.6
20240619225555 87 356 2.0 2.0 0.00 0.00 0.00 67 1027.8
20240619225054 87 313 2.0 2.0 0.00 0.00 0.00 67 1027.7
20240619224553 88 334 3.0 3.0 0.00 0.00 0.00 67 1027.6
20240619224051 88 14 1.0 2.0 0.00 0.00 0.00 67 1027.6
20240619223550 88 31 1.0 1.0 0.00 0.00 0.00 68 1027.7
20240619223048 89 340 2.0 5.0 0.00 0.00 0.00 68 1027.8
20240619222545 89 350 0.0 1.0 0.00 0.00 0.00 68 1027.7
20240619222044 89 347 2.0 3.0 0.00 0.00 0.00 67 1028.0
20240619221541 89 305 3.0 3.0 0.00 0.00 0.00 66 1028.0
20240619221040 89 356 2.0 2.0 0.00 0.00 0.00 68 1028.1
20240619220538 88 359 3.0 5.0 0.00 0.00 0.00 68 1028.0
20240619220037 89 1 2.0 2.0 0.00 0.00 0.00 67 1028.0
20240619215537 89 359 1.0 2.0 0.00 0.00 0.00 66 1028.1
20240619215035 89 349 5.0 6.0 0.00 0.00 0.00 66 1028.2
20240619214533 90 335 3.0 5.0 0.00 0.00 0.00 65 1028.1
20240619214031 90 355 1.0 2.0 0.00 0.00 0.00 64 1028.1
20240619213530 89 311 3.0 3.0 0.00 0.00 0.00 65 1028.2
20240619213028 89 0 3.0 5.0 0.00 0.00 0.00 67 1028.1
20240619212526 89 9 1.0 1.0 0.00 0.00 0.00 66 1028.4
20240619212025 89 288 2.0 2.0 0.00 0.00 0.00 66 1028.1
20240619211523 89 284 3.0 5.0 0.00 0.00 0.00 66 1028.4
20240619211022 89 335 5.0 7.0 0.00 0.00 0.00 65 1028.2
20240619210522 89 10 1.0 1.0 0.00 0.00 0.00 68 1028.4
20240619210021 90 354 8.0 10.0 0.00 0.00 0.00 64 1028.4
20240619205520 90 55 1.0 2.0 0.00 0.00 0.00 66 1028.3
20240619205019 89 353 1.0 1.0 0.00 0.00 0.00 66 1028.1
20240619204519 90 309 1.0 2.0 0.00 0.00 0.00 65 1028.4
20240619204018 90 337 3.0 3.0 0.00 0.00 0.00 65 1028.3
20240619203516 90 285 3.0 3.0 0.00 0.00 0.00 67 1028.2
20240619203016 88 333 2.0 2.0 0.00 0.00 0.00 70 1028.3
20240619202514 89 351 4.0 6.0 0.00 0.00 0.00 67 1028.1
20240619202012 91 1 4.0 5.0 0.00 0.00 0.00 64 1028.3
20240619201510 90 325 3.0 3.0 0.00 0.00 0.00 66 1028.2
20240619201009 91 241 2.0 3.0 0.00 0.00 0.00 62 1028.2
20240619200506 91 5 0.0 1.0 0.00 0.00 0.00 66 1028.4
20240619200005 91 339 3.0 3.0 0.00 0.00 0.00 63 1028.5
20240619195504 90 334 3.0 3.0 0.00 0.00 0.00 63 1028.5
20240619195003 91 101 3.0 3.0 0.00 0.00 0.00 64 1028.2
20240619194459 90 156 3.0 5.0 0.00 0.00 0.00 63 1028.5
20240619193958 90 257 2.0 2.0 0.00 0.00 0.00 65 1028.5
20240619193456 90 107 1.0 1.0 0.00 0.00 0.00 68 1028.7
20240619192954 90 337 3.0 3.0 0.00 0.00 0.00 67 1028.9
20240619192451 90 145 2.0 2.0 0.00 0.00 0.00 67 1028.8
20240619191950 91 321 0.0 1.0 0.00 0.00 0.00 66 1028.6
20240619191449 89 336 1.0 1.0 0.00 0.00 0.00 70 1028.7
20240619190948 88 358 1.0 1.0 0.00 0.00 0.00 70 1028.8
20240619190447 89 279 2.0 3.0 0.00 0.00 0.00 69 1028.6
20240619185946 90 0 0.0 1.0 0.00 0.00 0.00 68 1028.5
20240619185444 89 101 3.0 5.0 0.00 0.00 0.00 69 1028.6
20240619184944 89 329 3.0 3.0 0.00 0.00 0.00 72 1028.6
20240619184442 88 354 3.0 3.0 0.00 0.00 0.00 71 1028.6
20240619183941 89 98 1.0 1.0 0.00 0.00 0.00 72 1028.8
20240619183439 88 345 2.0 2.0 0.00 0.00 0.00 71 1028.8
20240619182937 88 334 4.0 5.0 0.00 0.00 0.00 72 1028.8
20240619182436 88 313 1.0 2.0 0.00 0.00 0.00 74 1028.8
20240619181935 88 330 0.0 1.0 0.00 0.00 0.00 74 1028.9
20240619181434 87 317 2.0 2.0 0.00 0.00 0.00 76 1028.7
20240619180932 88 124 1.0 2.0 0.00 0.00 0.00 74 1028.7
20240619180428 88 341 3.0 3.0 0.00 0.00 0.00 71 1028.9
20240619175917 89 309 3.0 3.0 0.00 0.00 0.00 73 1029.0
20240619175416 88 216 0.0 0.0 0.00 0.00 0.00 74 1029.1
20240619174915 87 318 1.0 1.0 0.00 0.00 0.00 74 1029.2
20240619174413 87 316 3.0 3.0 0.00 0.00 0.00 75 1028.8
20240619173912 87 305 2.0 2.0 0.00 0.00 0.00 76 1029.0
20240619173411 86 3 3.0 3.0 0.00 0.00 0.00 75 1029.0
20240619172910 87 298 3.0 3.0 0.00 0.00 0.00 73 1029.0
20240619172408 87 68 2.0 2.0 0.00 0.00 0.00 76 1029.0
20240619171906 87 3 1.0 2.0 0.00 0.00 0.00 74 1029.3
20240619171404 86 322 2.0 2.0 0.00 0.00 0.00 76 1028.9
20240619170902 86 343 6.0 7.0 0.00 0.00 0.00 74 1029.2
20240619170401 86 340 3.0 3.0 0.00 0.00 0.00 75 1029.2
20240619165859 85 346 2.0 2.0 0.00 0.00 0.00 76 1029.3
20240619165357 85 301 1.0 1.0 0.00 0.00 0.00 75 1029.3
20240619164856 86 288 2.0 2.0 0.00 0.00 0.00 75 1029.4
20240619164355 86 338 1.0 2.0 0.00 0.00 0.00 77 1029.2
20240619163854 86 352 4.0 5.0 0.00 0.00 0.00 76 1029.3